sensor_id;sensor_type;location;lat;lon;timestamp;temperature;humidity
3919;DHT22;1974;48.670;8.994;2022-12-18T00:02:11;-7.60;99.90
3919;DHT22;1974;48.670;8.994;2022-12-18T00:04:38;-7.60;99.90
3919;DHT22;1974;48.670;8.994;2022-12-18T00:07:05;-7.60;99.90
3919;DHT22;1974;48.670;8.994;2022-12-18T00:09:32;-7.50;99.90
3919;DHT22;1974;48.670;8.994;2022-12-18T00:11:58;-7.50;99.90
3919;DHT22;1974;48.670;8.994;2022-12-18T00:14:25;-7.50;99.90
3919;DHT22;1974;48.670;8.994;2022-12-18T00:16:53;-7.50;99.90
3919;DHT22;1974;48.670;8.994;2022-12-18T00:19:20;-7.60;99.90
3919;DHT22;1974;48.670;8.994;2022-12-18T00:21:47;-7.50;99.90
3919;DHT22;1974;48.670;8.994;2022-12-18T00:24:14;-7.50;99.90
3919;DHT22;1974;48.670;8.994;2022-12-18T00:26:40;-7.50;99.90
3919;DHT22;1974;48.670;8.994;2022-12-18T00:29:10;-7.60;99.90
3919;DHT22;1974;48.670;8.994;2022-12-18T00:31:40;-7.60;99.90
3919;DHT22;1974;48.670;8.994;2022-12-18T00:34:09;-7.70;99.90
3919;DHT22;1974;48.670;8.994;2022-12-18T00:36:38;-7.80;99.90
3919;DHT22;1974;48.670;8.994;2022-12-18T00:39:05;-7.80;99.90
3919;DHT22;1974;48.670;8.994;2022-12-18T00:41:32;-7.80;99.90
3919;DHT22;1974;48.670;8.994;2022-12-18T00:44:15;-7.80;99.90
3919;DHT22;1974;48.670;8.994;2022-12-18T00:46:43;-7.80;99.90
3919;DHT22;1974;48.670;8.994;2022-12-18T00:49:11;-7.80;99.90
3919;DHT22;1974;48.670;8.994;2022-12-18T00:51:38;-7.70;99.90
3919;DHT22;1974;48.670;8.994;2022-12-18T00:54:05;-7.70;99.90
3919;DHT22;1974;48.670;8.994;2022-12-18T00:56:32;-7.60;99.90
3919;DHT22;1974;48.670;8.994;2022-12-18T00:58:58;-7.50;99.90
3919;DHT22;1974;48.670;8.994;2022-12-18T01:01:25;-7.50;99.90
3919;DHT22;1974;48.670;8.994;2022-12-18T01:03:52;-7.50;99.90
3919;DHT22;1974;48.670;8.994;2022-12-18T01:06:20;-7.60;99.90
3919;DHT22;1974;48.670;8.994;2022-12-18T01:08:47;-7.60;99.90
3919;DHT22;1974;48.670;8.994;2022-12-18T01:11:20;-7.60;99.90
3919;DHT22;1974;48.670;8.994;2022-12-18T01:13:47;-7.70;99.90
3919;DHT22;1974;48.670;8.994;2022-12-18T01:16:16;-7.70;99.90
3919;DHT22;1974;48.670;8.994;2022-12-18T01:18:43;-7.70;99.90
3919;DHT22;1974;48.670;8.994;2022-12-18T01:21:12;-7.70;99.90
3919;DHT22;1974;48.670;8.994;2022-12-18T01:23:41;-7.60;99.90
3919;DHT22;1974;48.670;8.994;2022-12-18T01:26:09;-7.60;99.90
3919;DHT22;1974;48.670;8.994;2022-12-18T01:28:36;-7.50;99.90
3919;DHT22;1974;48.670;8.994;2022-12-18T01:31:11;-7.50;99.90
3919;DHT22;1974;48.670;8.994;2022-12-18T01:33:38;-7.40;99.90
3919;DHT22;1974;48.670;8.994;2022-12-18T01:36:05;-7.40;99.90
3919;DHT22;1974;48.670;8.994;2022-12-18T01:38:32;-7.40;99.90
3919;DHT22;1974;48.670;8.994;2022-12-18T01:41:01;-7.40;99.90
3919;DHT22;1974;48.670;8.994;2022-12-18T01:43:46;-7.40;99.90
3919;DHT22;1974;48.670;8.994;2022-12-18T01:46:13;-7.40;99.90
3919;DHT22;1974;48.670;8.994;2022-12-18T01:48:40;-7.30;99.90
3919;DHT22;1974;48.670;8.994;2022-12-18T01:51:10;-7.20;99.90
3919;DHT22;1974;48.670;8.994;2022-12-18T01:53:39;-7.20;99.90
3919;DHT22;1974;48.670;8.994;2022-12-18T01:56:10;-7.10;99.90
3919;DHT22;1974;48.670;8.994;2022-12-18T01:58:44;-7.10;99.90
3919;DHT22;1974;48.670;8.994;2022-12-18T02:01:13;-7.00;99.90
3919;DHT22;1974;48.670;8.994;2022-12-18T02:03:41;-7.00;99.90
3919;DHT22;1974;48.670;8.994;2022-12-18T02:06:13;-7.00;99.90
3919;DHT22;1974;48.670;8.994;2022-12-18T02:08:55;-7.00;99.90
3919;DHT22;1974;48.670;8.994;2022-12-18T02:11:37;-7.00;99.90
3919;DHT22;1974;48.670;8.994;2022-12-18T02:14:16;-7.00;99.90
3919;DHT22;1974;48.670;8.994;2022-12-18T02:16:49;-6.90;99.90
3919;DHT22;1974;48.670;8.994;2022-12-18T02:22:23;-7.00;99.90
3919;DHT22;1974;48.670;8.994;2022-12-18T02:25:00;-7.10;99.90
3919;DHT22;1974;48.670;8.994;2022-12-18T02:27:33;-7.20;99.90
3919;DHT22;1974;48.670;8.994;2022-12-18T02:30:04;-7.20;99.90
3919;DHT22;1974;48.670;8.994;2022-12-18T02:32:34;-7.20;99.90
3919;DHT22;1974;48.670;8.994;2022-12-18T02:35:05;-7.30;99.90
3919;DHT22;1974;48.670;8.994;2022-12-18T02:37:33;-7.60;99.90
3919;DHT22;1974;48.670;8.994;2022-12-18T02:40:04;-7.60;99.90
3919;DHT22;1974;48.670;8.994;2022-12-18T02:42:32;-7.60;99.90
3919;DHT22;1974;48.670;8.994;2022-12-18T02:44:59;-7.70;99.90
3919;DHT22;1974;48.670;8.994;2022-12-18T02:47:29;-7.70;99.90
3919;DHT22;1974;48.670;8.994;2022-12-18T02:50:04;-7.80;99.90
3919;DHT22;1974;48.670;8.994;2022-12-18T02:52:36;-7.90;99.90
3919;DHT22;1974;48.670;8.994;2022-12-18T02:55:16;-8.00;99.90
3919;DHT22;1974;48.670;8.994;2022-12-18T02:57:49;-8.00;99.90
3919;DHT22;1974;48.670;8.994;2022-12-18T03:00:22;-8.00;99.90
3919;DHT22;1974;48.670;8.994;2022-12-18T03:02:54;-8.00;99.90
3919;DHT22;1974;48.670;8.994;2022-12-18T03:05:24;-8.00;99.90
3919;DHT22;1974;48.670;8.994;2022-12-18T03:07:57;-7.90;99.90
3919;DHT22;1974;48.670;8.994;2022-12-18T03:10:27;-8.00;99.90
3919;DHT22;1974;48.670;8.994;2022-12-18T03:13:02;-8.00;99.90
3919;DHT22;1974;48.670;8.994;2022-12-18T03:15:31;-8.00;99.90
3919;DHT22;1974;48.670;8.994;2022-12-18T03:18:04;-8.00;99.90
3919;DHT22;1974;48.670;8.994;2022-12-18T03:20:33;-8.00;99.90
3919;DHT22;1974;48.670;8.994;2022-12-18T03:23:06;-8.00;99.90
3919;DHT22;1974;48.670;8.994;2022-12-18T03:25:34;-7.90;99.90
3919;DHT22;1974;48.670;8.994;2022-12-18T03:28:06;-8.00;99.90
3919;DHT22;1974;48.670;8.994;2022-12-18T03:30:38;-8.00;99.90
3919;DHT22;1974;48.670;8.994;2022-12-18T03:33:08;-8.00;99.90
3919;DHT22;1974;48.670;8.994;2022-12-18T03:35:40;-8.00;99.90
3919;DHT22;1974;48.670;8.994;2022-12-18T03:38:08;-8.00;99.90
3919;DHT22;1974;48.670;8.994;2022-12-18T03:40:43;-8.00;99.90
3919;DHT22;1974;48.670;8.994;2022-12-18T03:43:17;-8.00;99.90
3919;DHT22;1974;48.670;8.994;2022-12-18T03:45:51;-8.00;99.90
3919;DHT22;1974;48.670;8.994;2022-12-18T03:48:26;-8.10;99.90
3919;DHT22;1974;48.670;8.994;2022-12-18T03:50:57;-8.00;99.90
3919;DHT22;1974;48.670;8.994;2022-12-18T03:53:32;-7.90;99.90
3919;DHT22;1974;48.670;8.994;2022-12-18T03:56:02;-7.90;99.90
3919;DHT22;1974;48.670;8.994;2022-12-18T03:58:33;-7.90;99.90
3919;DHT22;1974;48.670;8.994;2022-12-18T04:01:04;-7.80;99.90
3919;DHT22;1974;48.670;8.994;2022-12-18T04:03:32;-7.90;99.90
3919;DHT22;1974;48.670;8.994;2022-12-18T04:06:01;-7.90;99.90
3919;DHT22;1974;48.670;8.994;2022-12-18T04:08:29;-7.90;99.90
3919;DHT22;1974;48.670;8.994;2022-12-18T04:10:56;-7.90;99.90
3919;DHT22;1974;48.670;8.994;2022-12-18T04:13:23;-7.90;99.90
3919;DHT22;1974;48.670;8.994;2022-12-18T04:15:52;-7.90;99.90
3919;DHT22;1974;48.670;8.994;2022-12-18T04:18:18;-7.90;99.90
3919;DHT22;1974;48.670;8.994;2022-12-18T04:20:45;-8.00;99.90
3919;DHT22;1974;48.670;8.994;2022-12-18T04:23:13;-8.00;99.90
3919;DHT22;1974;48.670;8.994;2022-12-18T04:25:40;-8.00;99.90
3919;DHT22;1974;48.670;8.994;2022-12-18T04:28:07;-8.00;99.90
3919;DHT22;1974;48.670;8.994;2022-12-18T04:30:33;-8.00;99.90
3919;DHT22;1974;48.670;8.994;2022-12-18T04:33:01;-8.00;99.90
3919;DHT22;1974;48.670;8.994;2022-12-18T04:35:28;-8.00;99.90
3919;DHT22;1974;48.670;8.994;2022-12-18T04:37:55;-8.00;99.90
3919;DHT22;1974;48.670;8.994;2022-12-18T04:40:22;-8.00;99.90
3919;DHT22;1974;48.670;8.994;2022-12-18T04:42:48;-7.90;99.90
3919;DHT22;1974;48.670;8.994;2022-12-18T04:45:15;-7.90;99.90
3919;DHT22;1974;48.670;8.994;2022-12-18T04:47:42;-7.90;99.90
3919;DHT22;1974;48.670;8.994;2022-12-18T04:50:11;-7.90;99.90
3919;DHT22;1974;48.670;8.994;2022-12-18T04:52:37;-7.90;99.90
3919;DHT22;1974;48.670;8.994;2022-12-18T04:55:05;-7.90;99.90
3919;DHT22;1974;48.670;8.994;2022-12-18T04:57:31;-7.90;99.90
3919;DHT22;1974;48.670;8.994;2022-12-18T04:59:58;-7.90;99.90
3919;DHT22;1974;48.670;8.994;2022-12-18T05:02:25;-7.90;99.90
3919;DHT22;1974;48.670;8.994;2022-12-18T05:04:52;-7.80;99.90
3919;DHT22;1974;48.670;8.994;2022-12-18T05:07:20;-7.80;99.90
3919;DHT22;1974;48.670;8.994;2022-12-18T05:09:47;-7.90;99.90
3919;DHT22;1974;48.670;8.994;2022-12-18T05:12:13;-8.00;99.90
3919;DHT22;1974;48.670;8.994;2022-12-18T05:14:40;-7.90;99.90
3919;DHT22;1974;48.670;8.994;2022-12-18T05:17:07;-7.90;99.90
3919;DHT22;1974;48.670;8.994;2022-12-18T05:19:34;-7.90;99.90
3919;DHT22;1974;48.670;8.994;2022-12-18T05:22:00;-7.90;99.90
3919;DHT22;1974;48.670;8.994;2022-12-18T05:24:29;-7.90;99.90
3919;DHT22;1974;48.670;8.994;2022-12-18T05:26:56;-7.90;99.90
3919;DHT22;1974;48.670;8.994;2022-12-18T05:29:22;-7.90;99.90
3919;DHT22;1974;48.670;8.994;2022-12-18T05:31:49;-7.90;99.90
3919;DHT22;1974;48.670;8.994;2022-12-18T05:34:16;-7.90;99.90
3919;DHT22;1974;48.670;8.994;2022-12-18T05:36:43;-7.90;99.90
3919;DHT22;1974;48.670;8.994;2022-12-18T05:39:10;-7.90;99.90
3919;DHT22;1974;48.670;8.994;2022-12-18T05:41:38;-7.80;99.90
3919;DHT22;1974;48.670;8.994;2022-12-18T05:44:05;-7.80;99.90
3919;DHT22;1974;48.670;8.994;2022-12-18T05:46:32;-7.80;99.90
3919;DHT22;1974;48.670;8.994;2022-12-18T05:48:59;-7.80;99.90
3919;DHT22;1974;48.670;8.994;2022-12-18T05:51:27;-7.80;99.90
3919;DHT22;1974;48.670;8.994;2022-12-18T05:53:54;-7.80;99.90
3919;DHT22;1974;48.670;8.994;2022-12-18T05:56:22;-7.80;99.90
3919;DHT22;1974;48.670;8.994;2022-12-18T05:58:53;-7.80;99.90
3919;DHT22;1974;48.670;8.994;2022-12-18T06:01:22;-7.80;99.90
3919;DHT22;1974;48.670;8.994;2022-12-18T06:03:50;-7.80;99.90
3919;DHT22;1974;48.670;8.994;2022-12-18T06:06:18;-7.80;99.90
3919;DHT22;1974;48.670;8.994;2022-12-18T06:08:46;-7.70;99.90
3919;DHT22;1974;48.670;8.994;2022-12-18T06:11:15;-7.70;99.90
3919;DHT22;1974;48.670;8.994;2022-12-18T06:13:43;-7.80;99.90
3919;DHT22;1974;48.670;8.994;2022-12-18T06:16:11;-7.80;99.90
3919;DHT22;1974;48.670;8.994;2022-12-18T06:18:38;-7.70;99.90
3919;DHT22;1974;48.670;8.994;2022-12-18T06:21:05;-7.70;99.90
3919;DHT22;1974;48.670;8.994;2022-12-18T06:23:32;-7.70;99.90
3919;DHT22;1974;48.670;8.994;2022-12-18T06:26:02;-7.60;99.90
3919;DHT22;1974;48.670;8.994;2022-12-18T06:28:29;-7.60;99.90
3919;DHT22;1974;48.670;8.994;2022-12-18T06:30:56;-7.60;99.90
3919;DHT22;1974;48.670;8.994;2022-12-18T06:33:26;-7.60;99.90
3919;DHT22;1974;48.670;8.994;2022-12-18T06:35:53;-7.60;99.90
3919;DHT22;1974;48.670;8.994;2022-12-18T06:38:19;-7.60;99.90
3919;DHT22;1974;48.670;8.994;2022-12-18T06:40:46;-7.60;99.90
3919;DHT22;1974;48.670;8.994;2022-12-18T06:43:13;-7.60;99.90
3919;DHT22;1974;48.670;8.994;2022-12-18T06:45:40;-7.60;99.90
3919;DHT22;1974;48.670;8.994;2022-12-18T06:48:07;-7.60;99.90
3919;DHT22;1974;48.670;8.994;2022-12-18T06:50:35;-7.70;99.90
3919;DHT22;1974;48.670;8.994;2022-12-18T06:53:02;-7.70;99.90
3919;DHT22;1974;48.670;8.994;2022-12-18T06:55:29;-7.70;99.90
3919;DHT22;1974;48.670;8.994;2022-12-18T06:57:56;-7.70;99.90
3919;DHT22;1974;48.670;8.994;2022-12-18T07:00:23;-7.70;99.90
3919;DHT22;1974;48.670;8.994;2022-12-18T07:02:50;-7.70;99.90
3919;DHT22;1974;48.670;8.994;2022-12-18T07:05:17;-7.70;99.90
3919;DHT22;1974;48.670;8.994;2022-12-18T07:07:45;-7.60;99.90
3919;DHT22;1974;48.670;8.994;2022-12-18T07:10:11;-7.60;99.90
3919;DHT22;1974;48.670;8.994;2022-12-18T07:12:38;-7.60;99.90
3919;DHT22;1974;48.670;8.994;2022-12-18T07:15:06;-7.50;99.90
3919;DHT22;1974;48.670;8.994;2022-12-18T07:17:33;-7.50;99.90
3919;DHT22;1974;48.670;8.994;2022-12-18T07:20:00;-7.40;99.90
3919;DHT22;1974;48.670;8.994;2022-12-18T07:22:26;-7.30;99.90
3919;DHT22;1974;48.670;8.994;2022-12-18T07:24:55;-7.30;99.90
3919;DHT22;1974;48.670;8.994;2022-12-18T07:27:22;-7.20;99.90
3919;DHT22;1974;48.670;8.994;2022-12-18T07:29:49;-7.20;99.90
3919;DHT22;1974;48.670;8.994;2022-12-18T07:32:16;-7.10;99.90
3919;DHT22;1974;48.670;8.994;2022-12-18T07:34:42;-7.10;99.90
3919;DHT22;1974;48.670;8.994;2022-12-18T07:37:09;-7.00;99.90
3919;DHT22;1974;48.670;8.994;2022-12-18T07:39:36;-6.90;99.90
3919;DHT22;1974;48.670;8.994;2022-12-18T07:42:05;-6.90;99.90
3919;DHT22;1974;48.670;8.994;2022-12-18T07:44:49;-6.90;99.90
3919;DHT22;1974;48.670;8.994;2022-12-18T07:47:15;-6.90;99.90
3919;DHT22;1974;48.670;8.994;2022-12-18T07:49:42;-6.90;99.90
3919;DHT22;1974;48.670;8.994;2022-12-18T07:52:09;-6.90;99.90
3919;DHT22;1974;48.670;8.994;2022-12-18T07:54:37;-6.90;99.90
3919;DHT22;1974;48.670;8.994;2022-12-18T07:57:05;-6.90;99.90
3919;DHT22;1974;48.670;8.994;2022-12-18T07:59:32;-6.90;99.90
3919;DHT22;1974;48.670;8.994;2022-12-18T08:01:59;-6.80;99.90
3919;DHT22;1974;48.670;8.994;2022-12-18T08:04:26;-6.70;99.90
3919;DHT22;1974;48.670;8.994;2022-12-18T08:06:53;-6.70;99.90
3919;DHT22;1974;48.670;8.994;2022-12-18T08:09:20;-6.70;99.90
3919;DHT22;1974;48.670;8.994;2022-12-18T08:11:46;-6.60;99.90
3919;DHT22;1974;48.670;8.994;2022-12-18T08:14:15;-6.50;99.90
3919;DHT22;1974;48.670;8.994;2022-12-18T08:16:41;-6.50;99.90
3919;DHT22;1974;48.670;8.994;2022-12-18T08:19:08;-6.50;99.90
3919;DHT22;1974;48.670;8.994;2022-12-18T08:21:35;-6.40;99.90
3919;DHT22;1974;48.670;8.994;2022-12-18T08:24:02;-6.40;99.90
3919;DHT22;1974;48.670;8.994;2022-12-18T08:26:30;-6.30;99.90
3919;DHT22;1974;48.670;8.994;2022-12-18T08:28:59;-6.20;99.90
3919;DHT22;1974;48.670;8.994;2022-12-18T08:31:28;-6.30;99.90
3919;DHT22;1974;48.670;8.994;2022-12-18T08:33:56;-6.20;99.90
3919;DHT22;1974;48.670;8.994;2022-12-18T08:36:23;-6.20;99.90
3919;DHT22;1974;48.670;8.994;2022-12-18T08:38:50;-6.10;99.90
3919;DHT22;1974;48.670;8.994;2022-12-18T08:41:18;-6.10;99.90
3919;DHT22;1974;48.670;8.994;2022-12-18T08:43:45;-6.10;99.90
3919;DHT22;1974;48.670;8.994;2022-12-18T08:46:34;-6.00;99.90
3919;DHT22;1974;48.670;8.994;2022-12-18T08:49:02;-5.90;99.90
3919;DHT22;1974;48.670;8.994;2022-12-18T08:51:29;-5.80;99.90
3919;DHT22;1974;48.670;8.994;2022-12-18T08:53:56;-5.70;99.90
3919;DHT22;1974;48.670;8.994;2022-12-18T08:56:23;-5.70;99.90
3919;DHT22;1974;48.670;8.994;2022-12-18T08:58:51;-5.60;99.90
3919;DHT22;1974;48.670;8.994;2022-12-18T09:01:18;-5.60;99.90
3919;DHT22;1974;48.670;8.994;2022-12-18T09:03:47;-5.50;99.90
3919;DHT22;1974;48.670;8.994;2022-12-18T09:06:14;-5.40;99.90
3919;DHT22;1974;48.670;8.994;2022-12-18T09:08:42;-5.40;99.90
3919;DHT22;1974;48.670;8.994;2022-12-18T09:11:13;-5.30;99.90
3919;DHT22;1974;48.670;8.994;2022-12-18T09:13:40;-5.20;99.90
3919;DHT22;1974;48.670;8.994;2022-12-18T09:16:07;-5.10;99.90
3919;DHT22;1974;48.670;8.994;2022-12-18T09:18:34;-5.00;99.90
3919;DHT22;1974;48.670;8.994;2022-12-18T09:21:09;-4.90;99.90
3919;DHT22;1974;48.670;8.994;2022-12-18T09:23:36;-4.70;99.90
3919;DHT22;1974;48.670;8.994;2022-12-18T09:26:03;-4.60;99.90
3919;DHT22;1974;48.670;8.994;2022-12-18T09:28:29;-4.50;99.90
3919;DHT22;1974;48.670;8.994;2022-12-18T09:30:56;-4.40;99.90
3919;DHT22;1974;48.670;8.994;2022-12-18T09:33:23;-4.40;99.90
3919;DHT22;1974;48.670;8.994;2022-12-18T09:35:50;-4.30;99.90
3919;DHT22;1974;48.670;8.994;2022-12-18T09:38:19;-4.30;99.90
3919;DHT22;1974;48.670;8.994;2022-12-18T09:40:49;-4.20;99.90
3919;DHT22;1974;48.670;8.994;2022-12-18T09:43:18;-4.10;99.90
3919;DHT22;1974;48.670;8.994;2022-12-18T09:45:48;-3.70;99.90
3919;DHT22;1974;48.670;8.994;2022-12-18T09:48:23;-2.70;99.90
3919;DHT22;1974;48.670;8.994;2022-12-18T09:50:54;-1.70;99.90
3919;DHT22;1974;48.670;8.994;2022-12-18T09:53:26;-0.70;99.90
3919;DHT22;1974;48.670;8.994;2022-12-18T09:55:54;0.40;99.90
3919;DHT22;1974;48.670;8.994;2022-12-18T09:58:28;1.60;99.90
3919;DHT22;1974;48.670;8.994;2022-12-18T10:00:57;2.60;99.90
3919;DHT22;1974;48.670;8.994;2022-12-18T10:03:24;3.00;99.90
3919;DHT22;1974;48.670;8.994;2022-12-18T10:05:58;3.50;99.90
3919;DHT22;1974;48.670;8.994;2022-12-18T10:08:36;3.90;99.90
3919;DHT22;1974;48.670;8.994;2022-12-18T10:11:21;3.80;99.90
3919;DHT22;1974;48.670;8.994;2022-12-18T10:13:53;3.40;99.90
3919;DHT22;1974;48.670;8.994;2022-12-18T10:16:27;2.30;99.90
3919;DHT22;1974;48.670;8.994;2022-12-18T10:19:14;1.60;99.90
3919;DHT22;1974;48.670;8.994;2022-12-18T10:21:47;1.00;99.90
3919;DHT22;1974;48.670;8.994;2022-12-18T10:24:26;0.50;99.90
3919;DHT22;1974;48.670;8.994;2022-12-18T10:26:59;0.00;99.90
3919;DHT22;1974;48.670;8.994;2022-12-18T10:29:34;-0.40;99.90
3919;DHT22;1974;48.670;8.994;2022-12-18T10:32:01;-0.60;99.90
3919;DHT22;1974;48.670;8.994;2022-12-18T10:34:27;-0.80;99.90
3919;DHT22;1974;48.670;8.994;2022-12-18T10:36:54;-0.90;99.90
3919;DHT22;1974;48.670;8.994;2022-12-18T10:39:24;-1.00;99.90
3919;DHT22;1974;48.670;8.994;2022-12-18T10:41:52;-1.10;99.90
3919;DHT22;1974;48.670;8.994;2022-12-18T10:44:21;-1.20;99.90
3919;DHT22;1974;48.670;8.994;2022-12-18T10:46:50;-1.40;99.90
3919;DHT22;1974;48.670;8.994;2022-12-18T10:49:27;-1.50;99.90
3919;DHT22;1974;48.670;8.994;2022-12-18T10:52:05;-1.60;99.90
3919;DHT22;1974;48.670;8.994;2022-12-18T10:54:35;-1.80;99.90
3919;DHT22;1974;48.670;8.994;2022-12-18T10:57:17;-1.90;99.90
3919;DHT22;1974;48.670;8.994;2022-12-18T10:59:52;-1.90;99.90
3919;DHT22;1974;48.670;8.994;2022-12-18T11:02:33;-1.90;99.90
3919;DHT22;1974;48.670;8.994;2022-12-18T11:05:01;-1.90;99.90
3919;DHT22;1974;48.670;8.994;2022-12-18T11:07:48;-1.90;99.90
3919;DHT22;1974;48.670;8.994;2022-12-18T11:10:19;-1.80;99.90
3919;DHT22;1974;48.670;8.994;2022-12-18T11:12:46;-1.80;99.90
3919;DHT22;1974;48.670;8.994;2022-12-18T11:15:16;-1.70;99.90
3919;DHT22;1974;48.670;8.994;2022-12-18T11:17:48;-1.80;99.90
3919;DHT22;1974;48.670;8.994;2022-12-18T11:20:23;-1.70;99.90
3919;DHT22;1974;48.670;8.994;2022-12-18T11:22:55;-1.70;99.90
3919;DHT22;1974;48.670;8.994;2022-12-18T11:25:25;-1.80;99.90
3919;DHT22;1974;48.670;8.994;2022-12-18T11:27:54;-1.80;99.90
3919;DHT22;1974;48.670;8.994;2022-12-18T11:30:24;-1.80;99.90
3919;DHT22;1974;48.670;8.994;2022-12-18T11:32:57;-1.70;99.90
3919;DHT22;1974;48.670;8.994;2022-12-18T11:35:37;-1.70;99.90
3919;DHT22;1974;48.670;8.994;2022-12-18T11:38:12;-1.70;99.90
3919;DHT22;1974;48.670;8.994;2022-12-18T11:40:44;-1.70;99.90
3919;DHT22;1974;48.670;8.994;2022-12-18T11:43:15;-1.70;99.90
3919;DHT22;1974;48.670;8.994;2022-12-18T11:45:48;-1.70;99.90
3919;DHT22;1974;48.670;8.994;2022-12-18T11:48:21;-1.70;99.90
3919;DHT22;1974;48.670;8.994;2022-12-18T11:50:50;-1.70;99.90
3919;DHT22;1974;48.670;8.994;2022-12-18T11:53:18;-1.70;99.90
3919;DHT22;1974;48.670;8.994;2022-12-18T11:56:00;-1.70;99.90
3919;DHT22;1974;48.670;8.994;2022-12-18T11:58:42;-1.60;99.90
3919;DHT22;1974;48.670;8.994;2022-12-18T12:01:18;-1.60;99.90
3919;DHT22;1974;48.670;8.994;2022-12-18T12:04:27;-1.60;99.90
3919;DHT22;1974;48.670;8.994;2022-12-18T12:07:03;-1.50;99.90
3919;DHT22;1974;48.670;8.994;2022-12-18T12:09:37;-1.60;99.90
3919;DHT22;1974;48.670;8.994;2022-12-18T12:12:22;-1.60;99.90
3919;DHT22;1974;48.670;8.994;2022-12-18T12:15:00;-1.70;99.90
3919;DHT22;1974;48.670;8.994;2022-12-18T12:17:35;-1.70;99.90
3919;DHT22;1974;48.670;8.994;2022-12-18T12:20:08;-1.70;99.90
3919;DHT22;1974;48.670;8.994;2022-12-18T12:22:45;-1.70;99.90
3919;DHT22;1974;48.670;8.994;2022-12-18T12:25:26;-1.70;99.90
3919;DHT22;1974;48.670;8.994;2022-12-18T12:28:12;-1.70;99.90
3919;DHT22;1974;48.670;8.994;2022-12-18T12:30:51;-1.60;99.90
3919;DHT22;1974;48.670;8.994;2022-12-18T12:33:33;-1.50;99.90
3919;DHT22;1974;48.670;8.994;2022-12-18T12:36:08;-1.50;99.90
3919;DHT22;1974;48.670;8.994;2022-12-18T12:38:41;-1.60;99.90
3919;DHT22;1974;48.670;8.994;2022-12-18T12:41:13;-1.50;99.90
3919;DHT22;1974;48.670;8.994;2022-12-18T12:43:58;-1.50;99.90
3919;DHT22;1974;48.670;8.994;2022-12-18T12:46:26;-1.50;99.90
3919;DHT22;1974;48.670;8.994;2022-12-18T12:48:55;-1.50;99.90
3919;DHT22;1974;48.670;8.994;2022-12-18T12:51:25;-1.60;99.90
3919;DHT22;1974;48.670;8.994;2022-12-18T12:53:54;-1.60;99.90
3919;DHT22;1974;48.670;8.994;2022-12-18T12:56:22;-1.60;99.90
3919;DHT22;1974;48.670;8.994;2022-12-18T12:58:58;-1.60;99.90
3919;DHT22;1974;48.670;8.994;2022-12-18T13:01:35;-1.50;99.90
3919;DHT22;1974;48.670;8.994;2022-12-18T13:04:14;-1.50;99.90
3919;DHT22;1974;48.670;8.994;2022-12-18T13:06:50;-1.50;99.90
3919;DHT22;1974;48.670;8.994;2022-12-18T13:09:21;-1.50;99.90
3919;DHT22;1974;48.670;8.994;2022-12-18T13:11:48;-1.50;99.90
3919;DHT22;1974;48.670;8.994;2022-12-18T13:14:35;-1.40;99.90
3919;DHT22;1974;48.670;8.994;2022-12-18T13:17:28;-1.40;99.90
3919;DHT22;1974;48.670;8.994;2022-12-18T13:20:08;-1.40;99.90
3919;DHT22;1974;48.670;8.994;2022-12-18T13:22:37;-1.50;99.90
3919;DHT22;1974;48.670;8.994;2022-12-18T13:25:32;-1.50;99.90
3919;DHT22;1974;48.670;8.994;2022-12-18T13:28:09;-1.40;99.90
3919;DHT22;1974;48.670;8.994;2022-12-18T13:30:53;-1.40;99.90
3919;DHT22;1974;48.670;8.994;2022-12-18T13:33:47;-1.40;99.90
3919;DHT22;1974;48.670;8.994;2022-12-18T13:36:30;-1.40;99.90
3919;DHT22;1974;48.670;8.994;2022-12-18T13:42:39;-1.50;99.90
3919;DHT22;1974;48.670;8.994;2022-12-18T13:45:39;-1.60;99.90
3919;DHT22;1974;48.670;8.994;2022-12-18T13:48:15;-1.60;99.90
3919;DHT22;1974;48.670;8.994;2022-12-18T13:50:43;-1.60;99.90
3919;DHT22;1974;48.670;8.994;2022-12-18T13:53:20;-1.60;99.90
3919;DHT22;1974;48.670;8.994;2022-12-18T13:55:49;-1.50;99.90
3919;DHT22;1974;48.670;8.994;2022-12-18T13:58:16;-1.60;99.90
3919;DHT22;1974;48.670;8.994;2022-12-18T14:00:43;-1.60;99.90
3919;DHT22;1974;48.670;8.994;2022-12-18T14:03:19;-1.80;99.90
3919;DHT22;1974;48.670;8.994;2022-12-18T14:05:52;-1.80;99.90
3919;DHT22;1974;48.670;8.994;2022-12-18T14:08:20;-1.90;99.90
3919;DHT22;1974;48.670;8.994;2022-12-18T14:10:51;-1.90;99.90
3919;DHT22;1974;48.670;8.994;2022-12-18T14:13:23;-2.00;99.90
3919;DHT22;1974;48.670;8.994;2022-12-18T14:15:51;-2.00;99.90
3919;DHT22;1974;48.670;8.994;2022-12-18T14:18:25;-2.10;99.90
3919;DHT22;1974;48.670;8.994;2022-12-18T14:20:55;-2.10;99.90
3919;DHT22;1974;48.670;8.994;2022-12-18T14:23:33;-2.10;99.90
3919;DHT22;1974;48.670;8.994;2022-12-18T14:26:00;-2.10;99.90
3919;DHT22;1974;48.670;8.994;2022-12-18T14:28:27;-2.00;99.90
3919;DHT22;1974;48.670;8.994;2022-12-18T14:30:54;-2.00;99.90
3919;DHT22;1974;48.670;8.994;2022-12-18T14:33:24;-2.10;99.90
3919;DHT22;1974;48.670;8.994;2022-12-18T14:35:54;-2.10;99.90
3919;DHT22;1974;48.670;8.994;2022-12-18T14:38:26;-2.10;99.90
3919;DHT22;1974;48.670;8.994;2022-12-18T14:40:57;-2.20;99.90
3919;DHT22;1974;48.670;8.994;2022-12-18T14:43:26;-2.20;99.90
3919;DHT22;1974;48.670;8.994;2022-12-18T14:45:53;-2.20;99.90
3919;DHT22;1974;48.670;8.994;2022-12-18T14:48:24;-2.30;99.90
3919;DHT22;1974;48.670;8.994;2022-12-18T14:50:57;-2.30;99.90
3919;DHT22;1974;48.670;8.994;2022-12-18T14:53:36;-2.40;99.90
3919;DHT22;1974;48.670;8.994;2022-12-18T14:56:15;-2.30;99.90
3919;DHT22;1974;48.670;8.994;2022-12-18T14:58:48;-2.40;99.90
3919;DHT22;1974;48.670;8.994;2022-12-18T15:01:24;-2.50;99.90
3919;DHT22;1974;48.670;8.994;2022-12-18T15:03:54;-2.50;99.90
3919;DHT22;1974;48.670;8.994;2022-12-18T15:06:30;-2.60;99.90
3919;DHT22;1974;48.670;8.994;2022-12-18T15:08:58;-2.60;99.90
3919;DHT22;1974;48.670;8.994;2022-12-18T15:11:28;-2.60;99.90
3919;DHT22;1974;48.670;8.994;2022-12-18T15:13:57;-2.70;99.90
3919;DHT22;1974;48.670;8.994;2022-12-18T15:16:25;-2.70;99.90
3919;DHT22;1974;48.670;8.994;2022-12-18T15:18:53;-2.80;99.90
3919;DHT22;1974;48.670;8.994;2022-12-18T15:21:20;-2.90;99.90
3919;DHT22;1974;48.670;8.994;2022-12-18T15:23:48;-2.90;99.90
3919;DHT22;1974;48.670;8.994;2022-12-18T15:26:17;-3.00;99.90
3919;DHT22;1974;48.670;8.994;2022-12-18T15:28:46;-3.00;99.90
3919;DHT22;1974;48.670;8.994;2022-12-18T15:31:23;-3.00;99.90
3919;DHT22;1974;48.670;8.994;2022-12-18T15:34:10;-3.10;99.90
3919;DHT22;1974;48.670;8.994;2022-12-18T15:36:37;-3.10;99.90
3919;DHT22;1974;48.670;8.994;2022-12-18T15:39:05;-3.10;99.90
3919;DHT22;1974;48.670;8.994;2022-12-18T15:41:33;-3.20;99.90
3919;DHT22;1974;48.670;8.994;2022-12-18T15:44:00;-3.20;99.90
3919;DHT22;1974;48.670;8.994;2022-12-18T15:46:26;-3.30;99.90
3919;DHT22;1974;48.670;8.994;2022-12-18T15:48:54;-3.40;99.90
3919;DHT22;1974;48.670;8.994;2022-12-18T15:51:24;-3.40;99.90
3919;DHT22;1974;48.670;8.994;2022-12-18T15:53:54;-3.40;99.90
3919;DHT22;1974;48.670;8.994;2022-12-18T15:56:21;-3.50;99.90
3919;DHT22;1974;48.670;8.994;2022-12-18T15:59:09;-3.40;99.90
3919;DHT22;1974;48.670;8.994;2022-12-18T16:01:37;-3.50;99.90
3919;DHT22;1974;48.670;8.994;2022-12-18T16:04:04;-3.50;99.90
3919;DHT22;1974;48.670;8.994;2022-12-18T16:06:32;-3.50;99.90
3919;DHT22;1974;48.670;8.994;2022-12-18T16:08:59;-3.50;99.90
3919;DHT22;1974;48.670;8.994;2022-12-18T16:11:26;-3.50;99.90
3919;DHT22;1974;48.670;8.994;2022-12-18T16:14:06;-3.50;99.90
3919;DHT22;1974;48.670;8.994;2022-12-18T16:16:33;-3.50;99.90
3919;DHT22;1974;48.670;8.994;2022-12-18T16:18:59;-3.40;99.90
3919;DHT22;1974;48.670;8.994;2022-12-18T16:21:26;-3.40;99.90
3919;DHT22;1974;48.670;8.994;2022-12-18T16:23:54;-3.40;99.90
3919;DHT22;1974;48.670;8.994;2022-12-18T16:26:21;-3.40;99.90
3919;DHT22;1974;48.670;8.994;2022-12-18T16:28:48;-3.30;99.90
3919;DHT22;1974;48.670;8.994;2022-12-18T16:31:14;-3.20;99.90